sensor_id;sensor_type;location;lat;lon;timestamp;P1;durP1;ratioP1;P2;durP2;ratioP2
19691;SDS011;42748;50.016;19.890;2022-12-08T00:01:18;10.80;;;5.17;;
19691;SDS011;42748;50.016;19.890;2022-12-08T00:03:47;10.87;;;5.70;;
19691;SDS011;42748;50.016;19.890;2022-12-08T00:06:34;12.03;;;5.70;;
19691;SDS011;42748;50.016;19.890;2022-12-08T00:12:04;11.53;;;5.67;;
19691;SDS011;42748;50.016;19.890;2022-12-08T00:14:38;11.33;;;5.83;;
19691;SDS011;42748;50.016;19.890;2022-12-08T00:17:11;10.57;;;5.73;;
19691;SDS011;42748;50.016;19.890;2022-12-08T00:19:40;11.60;;;5.27;;
19691;SDS011;42748;50.016;19.890;2022-12-08T00:22:08;9.27;;;5.40;;
19691;SDS011;42748;50.016;19.890;2022-12-08T00:24:37;9.43;;;5.20;;
19691;SDS011;42748;50.016;19.890;2022-12-08T00:27:08;12.63;;;5.70;;
19691;SDS011;42748;50.016;19.890;2022-12-08T00:29:38;8.90;;;4.97;;
19691;SDS011;42748;50.016;19.890;2022-12-08T00:32:05;11.03;;;5.67;;
19691;SDS011;42748;50.016;19.890;2022-12-08T00:34:33;9.27;;;4.87;;
19691;SDS011;42748;50.016;19.890;2022-12-08T00:37:00;10.73;;;5.50;;
19691;SDS011;42748;50.016;19.890;2022-12-08T00:39:27;9.93;;;5.03;;
19691;SDS011;42748;50.016;19.890;2022-12-08T00:41:54;10.13;;;5.90;;
19691;SDS011;42748;50.016;19.890;2022-12-08T00:44:40;9.70;;;5.13;;
19691;SDS011;42748;50.016;19.890;2022-12-08T00:47:09;11.57;;;5.20;;
19691;SDS011;42748;50.016;19.890;2022-12-08T00:49:36;10.83;;;5.63;;
19691;SDS011;42748;50.016;19.890;2022-12-08T00:52:03;8.90;;;5.20;;
19691;SDS011;42748;50.016;19.890;2022-12-08T00:54:30;11.57;;;5.27;;
19691;SDS011;42748;50.016;19.890;2022-12-08T00:56:57;8.13;;;4.70;;
19691;SDS011;42748;50.016;19.890;2022-12-08T00:59:24;9.53;;;5.20;;
19691;SDS011;42748;50.016;19.890;2022-12-08T01:01:51;9.03;;;4.93;;
19691;SDS011;42748;50.016;19.890;2022-12-08T01:04:19;10.30;;;5.13;;
19691;SDS011;42748;50.016;19.890;2022-12-08T01:06:46;8.83;;;4.73;;
19691;SDS011;42748;50.016;19.890;2022-12-08T01:09:14;9.83;;;5.47;;
19691;SDS011;42748;50.016;19.890;2022-12-08T01:11:42;9.97;;;5.33;;
19691;SDS011;42748;50.016;19.890;2022-12-08T01:14:10;9.60;;;5.10;;
19691;SDS011;42748;50.016;19.890;2022-12-08T01:16:38;10.90;;;5.27;;
19691;SDS011;42748;50.016;19.890;2022-12-08T01:19:08;9.10;;;5.10;;
19691;SDS011;42748;50.016;19.890;2022-12-08T01:21:37;11.33;;;5.47;;
19691;SDS011;42748;50.016;19.890;2022-12-08T01:24:05;9.17;;;5.20;;
19691;SDS011;42748;50.016;19.890;2022-12-08T01:26:35;10.73;;;5.37;;
19691;SDS011;42748;50.016;19.890;2022-12-08T01:29:02;9.33;;;5.33;;
19691;SDS011;42748;50.016;19.890;2022-12-08T01:31:29;11.40;;;5.93;;
19691;SDS011;42748;50.016;19.890;2022-12-08T01:33:56;10.43;;;5.67;;
19691;SDS011;42748;50.016;19.890;2022-12-08T01:36:25;9.97;;;5.77;;
19691;SDS011;42748;50.016;19.890;2022-12-08T01:38:55;13.50;;;6.30;;
19691;SDS011;42748;50.016;19.890;2022-12-08T01:41:32;10.23;;;5.87;;
19691;SDS011;42748;50.016;19.890;2022-12-08T01:46:41;11.23;;;6.27;;
19691;SDS011;42748;50.016;19.890;2022-12-08T01:51:38;14.27;;;6.23;;
19691;SDS011;42748;50.016;19.890;2022-12-08T01:54:14;12.90;;;6.50;;
19691;SDS011;42748;50.016;19.890;2022-12-08T01:56:45;14.33;;;6.57;;
19691;SDS011;42748;50.016;19.890;2022-12-08T01:59:26;12.53;;;6.33;;
19691;SDS011;42748;50.016;19.890;2022-12-08T02:01:56;13.13;;;6.40;;
19691;SDS011;42748;50.016;19.890;2022-12-08T02:04:23;12.73;;;6.37;;
19691;SDS011;42748;50.016;19.890;2022-12-08T02:06:50;11.53;;;6.63;;
19691;SDS011;42748;50.016;19.890;2022-12-08T02:09:18;11.13;;;6.47;;
19691;SDS011;42748;50.016;19.890;2022-12-08T02:11:47;14.00;;;6.47;;
19691;SDS011;42748;50.016;19.890;2022-12-08T02:14:14;11.33;;;6.20;;
19691;SDS011;42748;50.016;19.890;2022-12-08T02:22:14;10.50;;;5.53;;
19691;SDS011;42748;50.016;19.890;2022-12-08T02:25:08;12.60;;;5.83;;
19691;SDS011;42748;50.016;19.890;2022-12-08T02:27:59;9.37;;;5.37;;
19691;SDS011;42748;50.016;19.890;2022-12-08T02:36:28;10.13;;;5.60;;
19691;SDS011;42748;50.016;19.890;2022-12-08T02:44:40;10.93;;;5.73;;
19691;SDS011;42748;50.016;19.890;2022-12-08T02:47:14;10.00;;;5.97;;
19691;SDS011;42748;50.016;19.890;2022-12-08T02:49:43;10.90;;;5.77;;
19691;SDS011;42748;50.016;19.890;2022-12-08T02:54:43;9.47;;;5.30;;
19691;SDS011;42748;50.016;19.890;2022-12-08T03:02:40;9.40;;;5.03;;
19691;SDS011;42748;50.016;19.890;2022-12-08T03:07:56;10.60;;;5.83;;
19691;SDS011;42748;50.016;19.890;2022-12-08T03:10:39;9.90;;;5.60;;
19691;SDS011;42748;50.016;19.890;2022-12-08T03:13:16;10.53;;;5.70;;
19691;SDS011;42748;50.016;19.890;2022-12-08T03:15:49;12.47;;;6.10;;
19691;SDS011;42748;50.016;19.890;2022-12-08T03:18:18;11.50;;;5.83;;
19691;SDS011;42748;50.016;19.890;2022-12-08T03:20:49;11.23;;;5.80;;
19691;SDS011;42748;50.016;19.890;2022-12-08T03:23:17;11.50;;;5.70;;
19691;SDS011;42748;50.016;19.890;2022-12-08T03:25:54;10.50;;;5.50;;
19691;SDS011;42748;50.016;19.890;2022-12-08T03:28:27;11.90;;;6.00;;
19691;SDS011;42748;50.016;19.890;2022-12-08T03:30:54;12.87;;;6.67;;
19691;SDS011;42748;50.016;19.890;2022-12-08T03:33:26;11.10;;;6.20;;
19691;SDS011;42748;50.016;19.890;2022-12-08T03:35:58;11.67;;;6.20;;
19691;SDS011;42748;50.016;19.890;2022-12-08T03:38:31;10.90;;;5.90;;
19691;SDS011;42748;50.016;19.890;2022-12-08T03:41:06;15.00;;;6.20;;
19691;SDS011;42748;50.016;19.890;2022-12-08T03:46:21;13.17;;;6.60;;
19691;SDS011;42748;50.016;19.890;2022-12-08T03:48:48;11.60;;;6.80;;
19691;SDS011;42748;50.016;19.890;2022-12-08T03:51:15;13.87;;;6.57;;
19691;SDS011;42748;50.016;19.890;2022-12-08T03:53:43;10.87;;;6.20;;
19691;SDS011;42748;50.016;19.890;2022-12-08T03:56:30;12.40;;;6.60;;
19691;SDS011;42748;50.016;19.890;2022-12-08T03:58:59;11.43;;;6.23;;
19691;SDS011;42748;50.016;19.890;2022-12-08T04:01:26;10.60;;;6.40;;
19691;SDS011;42748;50.016;19.890;2022-12-08T04:03:53;10.47;;;6.33;;
19691;SDS011;42748;50.016;19.890;2022-12-08T04:06:20;12.07;;;6.33;;
19691;SDS011;42748;50.016;19.890;2022-12-08T04:08:47;11.83;;;6.53;;
19691;SDS011;42748;50.016;19.890;2022-12-08T04:11:15;12.67;;;6.40;;
19691;SDS011;42748;50.016;19.890;2022-12-08T04:13:43;13.43;;;6.93;;
19691;SDS011;42748;50.016;19.890;2022-12-08T04:16:28;12.87;;;6.83;;
19691;SDS011;42748;50.016;19.890;2022-12-08T04:18:56;13.30;;;6.37;;
19691;SDS011;42748;50.016;19.890;2022-12-08T04:21:23;11.37;;;6.47;;
19691;SDS011;42748;50.016;19.890;2022-12-08T04:23:50;12.03;;;6.40;;
19691;SDS011;42748;50.016;19.890;2022-12-08T04:26:24;11.13;;;6.03;;
19691;SDS011;42748;50.016;19.890;2022-12-08T04:28:51;11.53;;;6.53;;
19691;SDS011;42748;50.016;19.890;2022-12-08T04:31:18;11.43;;;5.93;;
19691;SDS011;42748;50.016;19.890;2022-12-08T04:33:45;11.00;;;6.10;;
19691;SDS011;42748;50.016;19.890;2022-12-08T04:36:13;12.00;;;6.43;;
19691;SDS011;42748;50.016;19.890;2022-12-08T04:38:40;11.53;;;6.20;;
19691;SDS011;42748;50.016;19.890;2022-12-08T04:41:07;13.37;;;6.23;;
19691;SDS011;42748;50.016;19.890;2022-12-08T04:43:34;11.40;;;6.30;;
19691;SDS011;42748;50.016;19.890;2022-12-08T04:46:04;12.40;;;6.57;;
19691;SDS011;42748;50.016;19.890;2022-12-08T04:48:33;9.83;;;5.93;;
19691;SDS011;42748;50.016;19.890;2022-12-08T04:51:02;11.77;;;6.30;;
19691;SDS011;42748;50.016;19.890;2022-12-08T04:53:29;9.10;;;5.80;;
19691;SDS011;42748;50.016;19.890;2022-12-08T04:55:56;11.93;;;6.17;;
19691;SDS011;42748;50.016;19.890;2022-12-08T04:58:23;11.53;;;6.43;;
19691;SDS011;42748;50.016;19.890;2022-12-08T05:00:50;11.17;;;6.43;;
19691;SDS011;42748;50.016;19.890;2022-12-08T05:03:17;11.73;;;6.73;;
19691;SDS011;42748;50.016;19.890;2022-12-08T05:05:53;14.27;;;6.73;;
19691;SDS011;42748;50.016;19.890;2022-12-08T05:08:20;11.13;;;6.37;;
19691;SDS011;42748;50.016;19.890;2022-12-08T05:10:48;13.07;;;6.07;;
19691;SDS011;42748;50.016;19.890;2022-12-08T05:13:15;12.23;;;6.67;;
19691;SDS011;42748;50.016;19.890;2022-12-08T05:15:42;12.30;;;6.80;;
19691;SDS011;42748;50.016;19.890;2022-12-08T05:18:09;11.73;;;6.70;;
19691;SDS011;42748;50.016;19.890;2022-12-08T05:20:36;11.40;;;6.50;;
19691;SDS011;42748;50.016;19.890;2022-12-08T05:23:03;12.47;;;6.80;;
19691;SDS011;42748;50.016;19.890;2022-12-08T05:25:30;12.40;;;6.53;;
19691;SDS011;42748;50.016;19.890;2022-12-08T05:27:57;10.47;;;5.73;;
19691;SDS011;42748;50.016;19.890;2022-12-08T05:30:44;12.00;;;6.17;;
19691;SDS011;42748;50.016;19.890;2022-12-08T05:33:11;11.00;;;6.53;;
19691;SDS011;42748;50.016;19.890;2022-12-08T05:35:39;11.37;;;6.57;;
19691;SDS011;42748;50.016;19.890;2022-12-08T05:38:06;11.70;;;6.53;;
19691;SDS011;42748;50.016;19.890;2022-12-08T05:40:33;11.47;;;5.97;;
19691;SDS011;42748;50.016;19.890;2022-12-08T05:42:59;11.97;;;5.43;;
19691;SDS011;42748;50.016;19.890;2022-12-08T05:45:26;9.77;;;5.80;;
19691;SDS011;42748;50.016;19.890;2022-12-08T05:47:53;12.37;;;6.23;;
19691;SDS011;42748;50.016;19.890;2022-12-08T05:50:20;11.20;;;6.40;;
19691;SDS011;42748;50.016;19.890;2022-12-08T05:52:47;11.93;;;6.13;;
19691;SDS011;42748;50.016;19.890;2022-12-08T05:55:14;11.37;;;5.90;;
19691;SDS011;42748;50.016;19.890;2022-12-08T05:57:41;12.07;;;6.27;;
19691;SDS011;42748;50.016;19.890;2022-12-08T06:00:08;11.40;;;6.00;;
19691;SDS011;42748;50.016;19.890;2022-12-08T06:02:38;14.50;;;6.50;;
19691;SDS011;42748;50.016;19.890;2022-12-08T06:05:06;11.50;;;6.67;;
19691;SDS011;42748;50.016;19.890;2022-12-08T06:07:33;11.33;;;6.50;;
19691;SDS011;42748;50.016;19.890;2022-12-08T06:10:00;13.43;;;6.40;;
19691;SDS011;42748;50.016;19.890;2022-12-08T06:12:28;12.23;;;6.20;;
19691;SDS011;42748;50.016;19.890;2022-12-08T06:14:55;11.23;;;6.03;;
19691;SDS011;42748;50.016;19.890;2022-12-08T06:17:22;10.27;;;5.93;;
19691;SDS011;42748;50.016;19.890;2022-12-08T06:19:49;10.97;;;6.27;;
19691;SDS011;42748;50.016;19.890;2022-12-08T06:22:16;11.17;;;6.20;;
19691;SDS011;42748;50.016;19.890;2022-12-08T06:24:43;10.20;;;5.90;;
19691;SDS011;42748;50.016;19.890;2022-12-08T06:27:10;15.80;;;6.63;;
19691;SDS011;42748;50.016;19.890;2022-12-08T06:29:37;13.90;;;6.10;;
19691;SDS011;42748;50.016;19.890;2022-12-08T06:32:04;10.43;;;6.23;;
19691;SDS011;42748;50.016;19.890;2022-12-08T06:34:31;14.30;;;6.43;;
19691;SDS011;42748;50.016;19.890;2022-12-08T06:36:58;11.97;;;6.13;;
19691;SDS011;42748;50.016;19.890;2022-12-08T06:39:25;12.60;;;5.80;;
19691;SDS011;42748;50.016;19.890;2022-12-08T06:41:52;13.00;;;6.30;;
19691;SDS011;42748;50.016;19.890;2022-12-08T06:44:38;9.03;;;5.50;;
19691;SDS011;42748;50.016;19.890;2022-12-08T06:47:05;14.33;;;5.47;;
19691;SDS011;42748;50.016;19.890;2022-12-08T06:49:32;11.13;;;5.87;;
19691;SDS011;42748;50.016;19.890;2022-12-08T06:51:59;13.80;;;5.40;;
19691;SDS011;42748;50.016;19.890;2022-12-08T06:54:26;13.50;;;5.63;;
19691;SDS011;42748;50.016;19.890;2022-12-08T06:56:53;11.63;;;5.93;;
19691;SDS011;42748;50.016;19.890;2022-12-08T06:59:20;13.37;;;6.20;;
19691;SDS011;42748;50.016;19.890;2022-12-08T07:01:47;10.03;;;5.80;;
19691;SDS011;42748;50.016;19.890;2022-12-08T07:04:14;12.27;;;6.27;;
19691;SDS011;42748;50.016;19.890;2022-12-08T07:06:41;13.90;;;6.40;;
19691;SDS011;42748;50.016;19.890;2022-12-08T07:09:08;11.50;;;6.27;;
19691;SDS011;42748;50.016;19.890;2022-12-08T07:11:36;12.73;;;6.90;;
19691;SDS011;42748;50.016;19.890;2022-12-08T07:14:04;14.63;;;6.40;;
19691;SDS011;42748;50.016;19.890;2022-12-08T07:16:31;12.67;;;6.47;;
19691;SDS011;42748;50.016;19.890;2022-12-08T07:18:58;14.33;;;6.80;;
19691;SDS011;42748;50.016;19.890;2022-12-08T07:21:26;12.53;;;7.10;;
19691;SDS011;42748;50.016;19.890;2022-12-08T07:23:53;14.37;;;7.87;;
19691;SDS011;42748;50.016;19.890;2022-12-08T07:26:23;15.30;;;7.87;;
19691;SDS011;42748;50.016;19.890;2022-12-08T07:28:51;18.37;;;7.97;;
19691;SDS011;42748;50.016;19.890;2022-12-08T07:31:19;13.83;;;7.50;;
19691;SDS011;42748;50.016;19.890;2022-12-08T07:33:48;16.93;;;7.73;;
19691;SDS011;42748;50.016;19.890;2022-12-08T07:36:15;16.33;;;7.83;;
19691;SDS011;42748;50.016;19.890;2022-12-08T07:38:43;14.47;;;7.47;;
19691;SDS011;42748;50.016;19.890;2022-12-08T07:41:13;15.97;;;7.33;;
19691;SDS011;42748;50.016;19.890;2022-12-08T07:43:45;18.60;;;7.40;;
19691;SDS011;42748;50.016;19.890;2022-12-08T07:46:16;19.97;;;8.00;;
19691;SDS011;42748;50.016;19.890;2022-12-08T07:48:44;18.37;;;8.07;;
19691;SDS011;42748;50.016;19.890;2022-12-08T07:51:13;18.87;;;8.07;;
19691;SDS011;42748;50.016;19.890;2022-12-08T07:53:42;14.83;;;7.63;;
19691;SDS011;42748;50.016;19.890;2022-12-08T07:56:18;15.33;;;8.23;;
19691;SDS011;42748;50.016;19.890;2022-12-08T07:58:46;18.10;;;8.33;;
19691;SDS011;42748;50.016;19.890;2022-12-08T08:01:19;19.93;;;8.70;;
19691;SDS011;42748;50.016;19.890;2022-12-08T08:03:51;18.33;;;8.40;;
19691;SDS011;42748;50.016;19.890;2022-12-08T08:06:20;16.60;;;8.30;;
19691;SDS011;42748;50.016;19.890;2022-12-08T08:08:48;15.87;;;7.90;;
19691;SDS011;42748;50.016;19.890;2022-12-08T08:11:15;16.90;;;7.97;;
19691;SDS011;42748;50.016;19.890;2022-12-08T08:13:47;16.50;;;8.30;;
19691;SDS011;42748;50.016;19.890;2022-12-08T08:16:15;20.83;;;8.50;;
19691;SDS011;42748;50.016;19.890;2022-12-08T08:18:44;17.13;;;8.17;;
19691;SDS011;42748;50.016;19.890;2022-12-08T08:21:13;19.13;;;8.10;;
19691;SDS011;42748;50.016;19.890;2022-12-08T08:24:00;20.27;;;8.10;;
19691;SDS011;42748;50.016;19.890;2022-12-08T08:26:27;17.27;;;7.93;;
19691;SDS011;42748;50.016;19.890;2022-12-08T08:28:54;15.80;;;7.90;;
19691;SDS011;42748;50.016;19.890;2022-12-08T08:31:24;15.97;;;8.70;;
19691;SDS011;42748;50.016;19.890;2022-12-08T08:33:54;17.00;;;7.87;;
19691;SDS011;42748;50.016;19.890;2022-12-08T08:36:22;14.43;;;7.50;;
19691;SDS011;42748;50.016;19.890;2022-12-08T08:38:49;14.37;;;7.97;;
19691;SDS011;42748;50.016;19.890;2022-12-08T08:41:16;20.33;;;8.67;;
19691;SDS011;42748;50.016;19.890;2022-12-08T08:43:44;17.13;;;8.67;;
19691;SDS011;42748;50.016;19.890;2022-12-08T08:46:11;20.93;;;9.03;;
19691;SDS011;42748;50.016;19.890;2022-12-08T08:48:38;18.53;;;8.63;;
19691;SDS011;42748;50.016;19.890;2022-12-08T08:51:10;19.93;;;8.73;;
19691;SDS011;42748;50.016;19.890;2022-12-08T08:53:38;18.13;;;8.33;;
19691;SDS011;42748;50.016;19.890;2022-12-08T08:56:10;16.83;;;8.57;;
19691;SDS011;42748;50.016;19.890;2022-12-08T08:58:38;15.50;;;8.17;;
19691;SDS011;42748;50.016;19.890;2022-12-08T09:01:06;16.67;;;7.97;;
19691;SDS011;42748;50.016;19.890;2022-12-08T09:03:33;17.87;;;7.90;;
19691;SDS011;42748;50.016;19.890;2022-12-08T09:06:00;15.97;;;8.07;;
19691;SDS011;42748;50.016;19.890;2022-12-08T09:08:27;13.77;;;6.90;;
19691;SDS011;42748;50.016;19.890;2022-12-08T09:10:55;13.70;;;6.93;;
19691;SDS011;42748;50.016;19.890;2022-12-08T09:13:22;15.50;;;7.70;;
19691;SDS011;42748;50.016;19.890;2022-12-08T09:15:49;14.27;;;7.70;;
19691;SDS011;42748;50.016;19.890;2022-12-08T09:18:17;14.30;;;7.20;;
19691;SDS011;42748;50.016;19.890;2022-12-08T09:20:44;12.87;;;7.10;;
19691;SDS011;42748;50.016;19.890;2022-12-08T09:23:11;13.17;;;7.13;;
19691;SDS011;42748;50.016;19.890;2022-12-08T09:25:38;12.40;;;7.10;;
19691;SDS011;42748;50.016;19.890;2022-12-08T09:28:05;13.63;;;6.90;;
19691;SDS011;42748;50.016;19.890;2022-12-08T09:30:32;16.57;;;8.30;;
19691;SDS011;42748;50.016;19.890;2022-12-08T09:32:59;14.13;;;7.27;;
19691;SDS011;42748;50.016;19.890;2022-12-08T09:35:26;18.10;;;8.00;;
19691;SDS011;42748;50.016;19.890;2022-12-08T09:37:53;16.27;;;7.70;;
19691;SDS011;42748;50.016;19.890;2022-12-08T09:40:21;17.77;;;7.80;;
19691;SDS011;42748;50.016;19.890;2022-12-08T09:42:50;15.70;;;7.77;;
19691;SDS011;42748;50.016;19.890;2022-12-08T09:45:25;16.13;;;7.57;;
19691;SDS011;42748;50.016;19.890;2022-12-08T09:50:50;14.30;;;7.83;;
19691;SDS011;42748;50.016;19.890;2022-12-08T09:56:04;17.13;;;8.70;;
19691;SDS011;42748;50.016;19.890;2022-12-08T10:01:15;16.50;;;8.40;;
19691;SDS011;42748;50.016;19.890;2022-12-08T10:03:43;22.60;;;9.50;;
19691;SDS011;42748;50.016;19.890;2022-12-08T10:11:33;16.83;;;6.87;;
19691;SDS011;42748;50.016;19.890;2022-12-08T10:16:49;16.00;;;6.80;;
19691;SDS011;42748;50.016;19.890;2022-12-08T10:19:22;14.87;;;6.20;;
19691;SDS011;42748;50.016;19.890;2022-12-08T10:21:52;15.73;;;6.87;;
19691;SDS011;42748;50.016;19.890;2022-12-08T10:24:25;13.87;;;6.43;;
19691;SDS011;42748;50.016;19.890;2022-12-08T10:27:03;12.80;;;6.17;;
19691;SDS011;42748;50.016;19.890;2022-12-08T10:29:33;13.07;;;6.43;;
19691;SDS011;42748;50.016;19.890;2022-12-08T10:32:00;15.43;;;6.07;;
19691;SDS011;42748;50.016;19.890;2022-12-08T10:34:58;15.37;;;6.20;;
19691;SDS011;42748;50.016;19.890;2022-12-08T10:37:25;12.87;;;5.63;;
19691;SDS011;42748;50.016;19.890;2022-12-08T10:42:39;13.10;;;7.53;;
19691;SDS011;42748;50.016;19.890;2022-12-08T10:47:38;16.60;;;8.03;;
19691;SDS011;42748;50.016;19.890;2022-12-08T10:50:21;17.00;;;8.73;;
19691;SDS011;42748;50.016;19.890;2022-12-08T10:52:58;17.20;;;8.40;;
19691;SDS011;42748;50.016;19.890;2022-12-08T10:55:37;20.27;;;8.67;;
19691;SDS011;42748;50.016;19.890;2022-12-08T10:58:29;15.70;;;8.70;;
19691;SDS011;42748;50.016;19.890;2022-12-08T11:03:50;16.47;;;8.40;;
19691;SDS011;42748;50.016;19.890;2022-12-08T11:06:34;18.80;;;8.43;;
19691;SDS011;42748;50.016;19.890;2022-12-08T11:09:08;14.07;;;8.00;;
19691;SDS011;42748;50.016;19.890;2022-12-08T11:14:20;14.77;;;7.73;;
19691;SDS011;42748;50.016;19.890;2022-12-08T11:17:02;12.60;;;6.87;;
19691;SDS011;42748;50.016;19.890;2022-12-08T11:19:36;14.13;;;7.00;;
19691;SDS011;42748;50.016;19.890;2022-12-08T11:22:20;15.03;;;6.27;;
19691;SDS011;42748;50.016;19.890;2022-12-08T11:25:08;11.53;;;6.70;;
19691;SDS011;42748;50.016;19.890;2022-12-08T11:27:38;12.13;;;6.37;;
19691;SDS011;42748;50.016;19.890;2022-12-08T11:30:16;11.70;;;6.20;;
19691;SDS011;42748;50.016;19.890;2022-12-08T11:32:47;10.73;;;6.47;;
19691;SDS011;42748;50.016;19.890;2022-12-08T11:37:56;14.73;;;7.30;;
19691;SDS011;42748;50.016;19.890;2022-12-08T11:40:47;13.77;;;6.80;;
19691;SDS011;42748;50.016;19.890;2022-12-08T11:46:01;16.33;;;8.03;;
19691;SDS011;42748;50.016;19.890;2022-12-08T11:48:34;12.57;;;7.00;;
19691;SDS011;42748;50.016;19.890;2022-12-08T11:53:43;18.63;;;8.90;;
19691;SDS011;42748;50.016;19.890;2022-12-08T11:56:21;19.80;;;9.63;;
19691;SDS011;42748;50.016;19.890;2022-12-08T11:59:02;20.57;;;10.53;;
19691;SDS011;42748;50.016;19.890;2022-12-08T12:01:40;20.73;;;10.40;;
19691;SDS011;42748;50.016;19.890;2022-12-08T12:10:04;22.73;;;10.97;;
19691;SDS011;42748;50.016;19.890;2022-12-08T12:26:34;23.13;;;10.87;;
19691;SDS011;42748;50.016;19.890;2022-12-08T12:29:07;32.27;;;10.97;;
19691;SDS011;42748;50.016;19.890;2022-12-08T12:31:39;23.50;;;10.70;;
19691;SDS011;42748;50.016;19.890;2022-12-08T12:34:21;20.40;;;10.30;;
19691;SDS011;42748;50.016;19.890;2022-12-08T12:39:33;24.70;;;10.13;;
19691;SDS011;42748;50.016;19.890;2022-12-08T12:45:09;19.23;;;9.63;;
19691;SDS011;42748;50.016;19.890;2022-12-08T13:03:41;16.40;;;9.03;;
19691;SDS011;42748;50.016;19.890;2022-12-08T13:06:31;17.00;;;9.20;;
19691;SDS011;42748;50.016;19.890;2022-12-08T13:09:02;24.90;;;10.27;;
19691;SDS011;42748;50.016;19.890;2022-12-08T13:11:37;18.20;;;9.90;;
19691;SDS011;42748;50.016;19.890;2022-12-08T13:14:28;18.63;;;10.23;;
19691;SDS011;42748;50.016;19.890;2022-12-08T13:16:58;19.30;;;10.27;;
19691;SDS011;42748;50.016;19.890;2022-12-08T13:19:28;21.20;;;10.73;;
19691;SDS011;42748;50.016;19.890;2022-12-08T13:21:57;16.83;;;9.57;;
19691;SDS011;42748;50.016;19.890;2022-12-08T13:24:27;18.57;;;9.60;;
19691;SDS011;42748;50.016;19.890;2022-12-08T13:29:29;17.80;;;9.70;;
19691;SDS011;42748;50.016;19.890;2022-12-08T13:31:58;19.10;;;10.53;;
19691;SDS011;42748;50.016;19.890;2022-12-08T13:44:34;18.70;;;10.80;;
19691;SDS011;42748;50.016;19.890;2022-12-08T13:47:33;18.43;;;10.77;;
19691;SDS011;42748;50.016;19.890;2022-12-08T13:50:35;19.80;;;10.30;;
19691;SDS011;42748;50.016;19.890;2022-12-08T13:53:28;20.20;;;11.07;;
19691;SDS011;42748;50.016;19.890;2022-12-08T13:56:18;23.00;;;11.00;;
19691;SDS011;42748;50.016;19.890;2022-12-08T13:59:08;19.47;;;11.47;;
19691;SDS011;42748;50.016;19.890;2022-12-08T14:01:46;18.73;;;10.67;;
19691;SDS011;42748;50.016;19.890;2022-12-08T14:04:16;22.37;;;11.57;;
19691;SDS011;42748;50.016;19.890;2022-12-08T14:07:05;19.43;;;11.33;;
19691;SDS011;42748;50.016;19.890;2022-12-08T14:09:32;21.40;;;12.17;;
19691;SDS011;42748;50.016;19.890;2022-12-08T14:14:41;22.03;;;11.40;;
19691;SDS011;42748;50.016;19.890;2022-12-08T14:17:28;21.97;;;11.50;;
19691;SDS011;42748;50.016;19.890;2022-12-08T14:19:56;21.43;;;10.97;;
19691;SDS011;42748;50.016;19.890;2022-12-08T14:22:40;26.37;;;11.40;;
19691;SDS011;42748;50.016;19.890;2022-12-08T14:25:10;22.03;;;10.60;;
19691;SDS011;42748;50.016;19.890;2022-12-08T14:27:40;22.00;;;11.13;;
19691;SDS011;42748;50.016;19.890;2022-12-08T14:38:00;24.20;;;11.97;;
19691;SDS011;42748;50.016;19.890;2022-12-08T14:40:31;21.73;;;11.13;;
19691;SDS011;42748;50.016;19.890;2022-12-08T14:45:33;21.33;;;11.40;;
19691;SDS011;42748;50.016;19.890;2022-12-08T14:50:55;24.27;;;11.90;;
19691;SDS011;42748;50.016;19.890;2022-12-08T14:53:36;23.33;;;11.90;;
19691;SDS011;42748;50.016;19.890;2022-12-08T14:56:06;23.13;;;11.87;;
19691;SDS011;42748;50.016;19.890;2022-12-08T14:58:43;23.33;;;12.57;;
19691;SDS011;42748;50.016;19.890;2022-12-08T15:01:14;23.93;;;12.50;;
19691;SDS011;42748;50.016;19.890;2022-12-08T15:03:46;22.70;;;12.23;;
19691;SDS011;42748;50.016;19.890;2022-12-08T15:06:17;23.37;;;11.67;;
19691;SDS011;42748;50.016;19.890;2022-12-08T15:08:50;22.77;;;11.80;;
19691;SDS011;42748;50.016;19.890;2022-12-08T15:13:47;22.60;;;11.57;;
19691;SDS011;42748;50.016;19.890;2022-12-08T15:19:00;22.00;;;12.27;;
19691;SDS011;42748;50.016;19.890;2022-12-08T15:22:21;22.77;;;12.47;;
19691;SDS011;42748;50.016;19.890;2022-12-08T15:24:48;21.60;;;11.27;;
19691;SDS011;42748;50.016;19.890;2022-12-08T15:27:16;21.10;;;11.77;;
19691;SDS011;42748;50.016;19.890;2022-12-08T15:29:45;23.30;;;11.87;;
19691;SDS011;42748;50.016;19.890;2022-12-08T15:32:15;22.13;;;11.97;;
19691;SDS011;42748;50.016;19.890;2022-12-08T15:34:45;22.43;;;12.37;;
19691;SDS011;42748;50.016;19.890;2022-12-08T15:37:22;23.53;;;13.07;;
19691;SDS011;42748;50.016;19.890;2022-12-08T15:39:50;25.93;;;15.93;;
19691;SDS011;42748;50.016;19.890;2022-12-08T15:42:18;25.63;;;14.23;;
19691;SDS011;42748;50.016;19.890;2022-12-08T15:44:45;22.60;;;12.90;;
19691;SDS011;42748;50.016;19.890;2022-12-08T15:47:16;22.57;;;12.47;;
19691;SDS011;42748;50.016;19.890;2022-12-08T15:49:46;24.50;;;12.90;;
19691;SDS011;42748;50.016;19.890;2022-12-08T15:52:16;29.37;;;13.43;;
19691;SDS011;42748;50.016;19.890;2022-12-08T15:54:45;28.07;;;13.67;;
19691;SDS011;42748;50.016;19.890;2022-12-08T15:57:17;24.70;;;12.97;;
19691;SDS011;42748;50.016;19.890;2022-12-08T16:06:15;25.47;;;13.27;;
19691;SDS011;42748;50.016;19.890;2022-12-08T16:09:04;26.17;;;12.77;;
19691;SDS011;42748;50.016;19.890;2022-12-08T16:11:38;25.47;;;13.43;;
19691;SDS011;42748;50.016;19.890;2022-12-08T16:14:35;23.87;;;12.90;;
19691;SDS011;42748;50.016;19.890;2022-12-08T16:17:23;25.77;;;12.93;;
19691;SDS011;42748;50.016;19.890;2022-12-08T16:19:51;28.33;;;13.33;;
19691;SDS011;42748;50.016;19.890;2022-12-08T16:22:19;26.70;;;13.47;;
19691;SDS011;42748;50.016;19.890;2022-12-08T16:25:08;31.37;;;14.03;;
19691;SDS011;42748;50.016;19.890;2022-12-08T16:27:46;30.73;;;14.30;;
19691;SDS011;42748;50.016;19.890;2022-12-08T16:30:35;27.13;;;13.53;;
19691;SDS011;42748;50.016;19.890;2022-12-08T16:33:02;30.27;;;13.73;;
19691;SDS011;42748;50.016;19.890;2022-12-08T16:35:29;28.90;;;14.27;;
19691;SDS011;42748;50.016;19.890;2022-12-08T16:37:57;27.10;;;13.97;;
19691;SDS011;42748;50.016;19.890;2022-12-08T16:40:24;25.90;;;14.00;;
19691;SDS011;42748;50.016;19.890;2022-12-08T16:42:51;28.03;;;13.83;;
19691;SDS011;42748;50.016;19.890;2022-12-08T16:45:19;28.43;;;14.13;;
19691;SDS011;42748;50.016;19.890;2022-12-08T16:50:17;29.40;;;14.40;;
19691;SDS011;42748;50.016;19.890;2022-12-08T16:53:00;29.20;;;14.60;;
19691;SDS011;42748;50.016;19.890;2022-12-08T16:55:29;29.63;;;14.93;;
19691;SDS011;42748;50.016;19.890;2022-12-08T16:57:56;30.20;;;14.97;;
19691;SDS011;42748;50.016;19.890;2022-12-08T17:00:24;28.37;;;14.37;;
19691;SDS011;42748;50.016;19.890;2022-12-08T17:02:53;29.97;;;15.30;;
19691;SDS011;42748;50.016;19.890;2022-12-08T17:05:22;31.03;;;14.73;;
19691;SDS011;42748;50.016;19.890;2022-12-08T17:07:51;38.57;;;16.37;;
19691;SDS011;42748;50.016;19.890;2022-12-08T17:10:20;36.30;;;15.90;;
19691;SDS011;42748;50.016;19.890;2022-12-08T17:12:48;37.40;;;16.57;;
19691;SDS011;42748;50.016;19.890;2022-12-08T17:15:17;35.10;;;17.53;;
19691;SDS011;42748;50.016;19.890;2022-12-08T17:17:46;35.87;;;17.77;;
19691;SDS011;42748;50.016;19.890;2022-12-08T17:20:15;37.13;;;18.20;;